createdAt,value
2019-01-17T00:02:33.863Z,2.30
2019-01-17T00:05:27.312Z,2.30
2019-01-17T00:08:13.931Z,2.30
2019-01-17T00:11:01.036Z,2.40
2019-01-17T00:13:45.600Z,2.40
2019-01-17T00:16:39.450Z,2.40
2019-01-17T00:19:27.506Z,2.40
2019-01-17T00:22:21.788Z,2.40
2019-01-17T00:25:09.924Z,2.40
2019-01-17T00:27:54.203Z,2.10
2019-01-17T00:30:54.233Z,2.20
2019-01-17T00:33:42.367Z,2.10
2019-01-17T00:36:29.315Z,2.30
2019-01-17T00:39:26.625Z,2.30
2019-01-17T00:42:20.471Z,2.00
2019-01-17T00:45:07.480Z,2.10
2019-01-17T00:48:01.724Z,2.20
2019-01-17T00:50:48.789Z,2.10
2019-01-17T00:53:35.431Z,2.20
2019-01-17T00:56:21.905Z,2.00
2019-01-17T00:59:12.378Z,2.10
2019-01-17T01:02:18.528Z,2.20
2019-01-17T01:05:17.360Z,2.20
2019-01-17T01:08:08.389Z,2.10
2019-01-17T01:10:55.350Z,2.20
2019-01-17T01:13:43.292Z,2.10
2019-01-17T01:16:31.761Z,2.10
2019-01-17T01:19:22.727Z,2.10
2019-01-17T01:22:13.539Z,2.10
2019-01-17T01:25:00.281Z,2.20
2019-01-17T01:27:51.340Z,2.20
2019-01-17T01:30:51.432Z,2.10
2019-01-17T01:33:32.108Z,2.20
2019-01-17T01:36:25.912Z,2.10
2019-01-17T01:39:10.743Z,2.00
2019-01-17T01:41:57.509Z,1.90
2019-01-17T01:44:49.053Z,1.90
2019-01-17T01:47:35.391Z,1.90
2019-01-17T01:50:19.934Z,1.90
2019-01-17T01:53:17.192Z,2.00
2019-01-17T01:55:45.739Z,2.00
2019-01-17T01:58:14.107Z,2.00
2019-01-17T02:00:42.896Z,2.00
2019-01-17T02:03:11.368Z,2.20
2019-01-17T02:05:39.722Z,2.10
2019-01-17T02:08:08.164Z,2.00
2019-01-17T02:10:36.555Z,2.00
2019-01-17T02:13:05.408Z,2.10
2019-01-17T02:15:35.568Z,2.10
2019-01-17T02:18:04.018Z,2.10
2019-01-17T02:20:32.592Z,2.10
2019-01-17T02:23:01.119Z,2.10
2019-01-17T02:25:29.502Z,2.10
2019-01-17T02:27:57.842Z,2.10
2019-01-17T02:30:26.288Z,2.20
2019-01-17T02:32:54.753Z,2.10
2019-01-17T02:35:23.317Z,2.00
2019-01-17T02:37:51.680Z,2.00
2019-01-17T02:40:20.042Z,1.90
2019-01-17T02:42:48.606Z,1.90
2019-01-17T02:45:17.060Z,1.90
2019-01-17T02:47:45.562Z,2.00
2019-01-17T02:50:13.908Z,2.00
2019-01-17T02:52:44.156Z,2.00
2019-01-17T02:55:12.916Z,2.00
2019-01-17T02:57:41.276Z,2.10
2019-01-17T03:00:18.619Z,2.10
2019-01-17T03:02:47.168Z,2.10
2019-01-17T03:05:17.427Z,2.30
2019-01-17T03:07:45.881Z,2.20
2019-01-17T03:10:17.097Z,2.30
2019-01-17T03:12:45.593Z,2.30
2019-01-17T03:15:14.244Z,2.30
2019-01-17T03:17:42.599Z,2.40
2019-01-17T03:20:12.609Z,2.40
2019-01-17T03:22:41.089Z,2.40
2019-01-17T03:25:10.017Z,2.40
2019-01-17T03:27:38.486Z,2.40
2019-01-17T03:30:17.807Z,2.30
2019-01-17T03:32:46.857Z,2.30
2019-01-17T03:35:15.292Z,2.20
2019-01-17T03:37:43.775Z,2.30
2019-01-17T03:40:15.701Z,2.30
2019-01-17T03:42:44.219Z,2.20
2019-01-17T03:45:13.400Z,2.20
2019-01-17T03:47:42.381Z,2.30
2019-01-17T03:50:13.863Z,2.30
2019-01-17T03:52:42.566Z,2.30
2019-01-17T03:55:13.943Z,2.30
2019-01-17T03:57:42.394Z,2.30
2019-01-17T04:00:24.983Z,2.40
2019-01-17T04:02:54.022Z,2.30
2019-01-17T04:05:22.499Z,2.30
2019-01-17T04:07:50.858Z,2.30
2019-01-17T04:10:19.227Z,2.30
2019-01-17T04:12:47.875Z,2.20
2019-01-17T04:15:16.430Z,2.20
2019-01-17T04:17:44.794Z,2.10
2019-01-17T04:20:15.776Z,2.00
2019-01-17T04:22:44.179Z,2.00
2019-01-17T04:25:12.964Z,1.90
2019-01-17T04:27:41.508Z,2.00
2019-01-17T04:30:14.013Z,2.20
2019-01-17T04:32:42.485Z,2.10
2019-01-17T04:35:10.946Z,2.10
2019-01-17T04:37:39.627Z,2.10
2019-01-17T04:40:10.517Z,2.20
2019-01-17T04:42:39.041Z,2.10
2019-01-17T04:45:08.850Z,2.20
2019-01-17T04:47:37.201Z,2.20
2019-01-17T04:50:09.752Z,2.20
2019-01-17T04:52:38.187Z,2.30
2019-01-17T04:55:08.654Z,2.30
2019-01-17T04:57:38.508Z,2.30
2019-01-17T05:00:16.214Z,2.30
2019-01-17T05:02:44.760Z,2.30
2019-01-17T05:05:13.930Z,2.30
2019-01-17T05:07:42.385Z,2.30
2019-01-17T05:10:11.101Z,2.30
2019-01-17T05:12:39.676Z,2.30
2019-01-17T05:15:08.495Z,2.30
2019-01-17T05:17:37.066Z,2.30
2019-01-17T05:20:09.888Z,2.30
2019-01-17T05:22:38.276Z,2.30
2019-01-17T05:25:12.380Z,2.30
2019-01-17T05:27:37.615Z,2.30
2019-01-17T05:30:09.931Z,2.30
2019-01-17T05:32:38.945Z,2.40
2019-01-17T05:35:07.426Z,2.40
2019-01-17T05:37:35.885Z,2.40
2019-01-17T05:40:09.068Z,2.50
2019-01-17T05:42:37.676Z,2.50
2019-01-17T05:45:08.042Z,2.60
2019-01-17T05:47:37.327Z,2.60
2019-01-17T05:50:07.483Z,2.70
2019-01-17T05:52:36.870Z,2.70
2019-01-17T05:55:06.110Z,2.70
2019-01-17T05:57:34.572Z,2.70
2019-01-17T06:00:08.462Z,2.80
2019-01-17T06:02:37.255Z,2.70
2019-01-17T06:05:06.430Z,2.80
2019-01-17T06:07:34.782Z,2.80
2019-01-17T06:10:03.844Z,2.90
2019-01-17T06:12:32.294Z,2.90
2019-01-17T06:15:00.660Z,2.90
2019-01-17T06:17:29.019Z,2.90
2019-01-17T06:19:57.504Z,2.90
2019-01-17T06:22:26.050Z,2.90
2019-01-17T06:24:54.492Z,2.90
2019-01-17T06:27:22.879Z,2.90
2019-01-17T06:29:51.320Z,3.00
2019-01-17T06:32:19.768Z,3.00
2019-01-17T06:34:48.326Z,3.00
2019-01-17T06:37:16.883Z,3.00
2019-01-17T06:39:45.271Z,3.00
2019-01-17T06:42:13.704Z,3.00
2019-01-17T06:44:42.647Z,3.00
2019-01-17T06:47:11.855Z,3.00
2019-01-17T06:49:40.650Z,3.10
2019-01-17T06:52:09.297Z,3.10
2019-01-17T06:54:37.840Z,3.10
2019-01-17T06:57:06.304Z,3.10
2019-01-17T06:59:35.383Z,3.00
2019-01-17T07:02:04.134Z,3.00
2019-01-17T07:04:32.684Z,3.10
2019-01-17T07:07:01.274Z,3.10
2019-01-17T07:09:29.822Z,3.10
2019-01-17T07:11:58.685Z,3.00
2019-01-17T07:14:27.114Z,3.00
2019-01-17T07:16:55.749Z,3.10
2019-01-17T07:19:24.100Z,3.10
2019-01-17T07:21:53.203Z,3.20
2019-01-17T07:24:21.841Z,3.20
2019-01-17T07:26:52.007Z,3.20
2019-01-17T07:29:20.516Z,3.20
2019-01-17T07:31:49.593Z,3.20
2019-01-17T07:34:20.588Z,3.30
2019-01-17T07:36:48.969Z,3.40
2019-01-17T07:39:18.082Z,3.50
2019-01-17T07:41:46.638Z,3.50
2019-01-17T07:44:15.424Z,3.50
2019-01-17T07:46:44.369Z,3.60
2019-01-17T07:49:12.856Z,3.60
2019-01-17T07:51:41.687Z,3.60
2019-01-17T07:54:10.187Z,3.70
2019-01-17T07:56:39.215Z,3.70
2019-01-17T07:59:10.815Z,3.70
2019-01-17T08:01:40.322Z,3.70
2019-01-17T08:04:08.697Z,3.70
2019-01-17T08:06:37.074Z,3.70
2019-01-17T08:09:08.867Z,3.70
2019-01-17T08:11:37.260Z,3.70
2019-01-17T08:14:05.884Z,3.70
2019-01-17T08:16:34.286Z,3.80
2019-01-17T08:19:02.754Z,3.80
2019-01-17T08:21:31.730Z,3.80
2019-01-17T08:24:00.537Z,3.90
2019-01-17T08:26:28.891Z,3.90
2019-01-17T08:28:57.355Z,3.90
2019-01-17T08:31:25.815Z,3.90
2019-01-17T08:33:54.829Z,4.00
2019-01-17T08:36:23.271Z,4.10
2019-01-17T08:38:52.362Z,4.10
2019-01-17T08:41:21.895Z,4.20
2019-01-17T08:43:50.367Z,4.30
2019-01-17T08:46:18.824Z,4.30
2019-01-17T08:48:47.204Z,4.40
2019-01-17T08:51:15.574Z,4.40
2019-01-17T08:53:44.143Z,4.30
2019-01-17T08:56:12.616Z,4.40
2019-01-17T08:58:40.965Z,4.40
2019-01-17T09:01:09.341Z,4.60
2019-01-17T09:03:37.859Z,4.60
2019-01-17T09:06:06.229Z,4.60
2019-01-17T09:08:34.776Z,4.70
2019-01-17T09:11:03.574Z,4.80
2019-01-17T09:13:32.095Z,4.80
2019-01-17T09:16:00.658Z,4.80
2019-01-17T09:18:29.034Z,4.80
2019-01-17T09:20:58.695Z,4.90
2019-01-17T09:23:27.077Z,5.00
2019-01-17T09:25:55.530Z,5.10
2019-01-17T09:28:24.814Z,5.00
2019-01-17T09:30:53.274Z,5.00
2019-01-17T09:33:21.750Z,5.10
2019-01-17T09:35:50.232Z,5.20
2019-01-17T09:38:19.091Z,5.20
2019-01-17T09:40:47.478Z,5.30
2019-01-17T09:43:16.039Z,5.30
2019-01-17T09:45:46.200Z,5.30
2019-01-17T09:48:14.593Z,5.20
2019-01-17T09:50:42.980Z,5.20
2019-01-17T09:53:11.640Z,5.20
2019-01-17T09:55:40.299Z,5.20
2019-01-17T09:58:08.765Z,5.40
2019-01-17T10:00:37.524Z,5.40
2019-01-17T10:03:05.946Z,5.50
2019-01-17T10:05:34.315Z,5.70
2019-01-17T10:08:03.101Z,5.70
2019-01-17T10:10:31.657Z,5.80
2019-01-17T10:13:00.271Z,5.90
2019-01-17T10:16:13.350Z,6.00
2019-01-17T10:19:15.066Z,6.10
2019-01-17T10:22:33.436Z,6.20
2019-01-17T10:25:57.219Z,6.30
2019-01-17T10:29:09.297Z,6.50
2019-01-17T10:32:31.933Z,6.70
2019-01-17T10:35:44.665Z,6.80
2019-01-17T10:38:56.368Z,7.00
2019-01-17T10:42:32.247Z,7.30
2019-01-17T10:46:03.298Z,7.80
2019-01-17T10:49:26.955Z,8.30
2019-01-17T10:52:39.669Z,8.70
2019-01-17T10:56:27.807Z,9.00
2019-01-17T10:59:15.704Z,9.20
2019-01-17T11:03:09.737Z,9.40
2019-01-17T11:06:16.395Z,9.70
2019-01-17T11:09:22.388Z,10.30
2019-01-17T11:12:34.980Z,10.40
2019-01-17T11:15:51.000Z,10.70
2019-01-17T11:19:16.295Z,11.10
2019-01-17T11:22:49.412Z,11.50
2019-01-17T11:26:55.583Z,11.90
2019-01-17T11:29:55.789Z,12.20
2019-01-17T11:33:34.838Z,12.90
2019-01-17T11:36:47.937Z,12.80
2019-01-17T11:40:12.245Z,12.80
2019-01-17T11:43:19.444Z,12.80
2019-01-17T11:46:23.751Z,13.20
2019-01-17T11:49:38.105Z,13.00
2019-01-17T11:53:15.640Z,13.00
2019-01-17T11:56:15.131Z,13.10
2019-01-17T11:59:38.529Z,13.30
2019-01-17T12:03:10.364Z,13.40
2019-01-17T12:05:38.804Z,13.40
2019-01-17T12:08:07.267Z,13.60
2019-01-17T12:10:35.736Z,13.70
2019-01-17T12:13:04.281Z,13.80
2019-01-17T12:15:32.628Z,13.90
2019-01-17T12:18:01.085Z,14.20
2019-01-17T12:20:29.420Z,14.20
2019-01-17T12:22:58.411Z,14.00
2019-01-17T12:25:26.860Z,14.00
2019-01-17T12:27:55.328Z,14.10
2019-01-17T12:30:23.736Z,14.10
2019-01-17T12:32:52.147Z,14.10
2019-01-17T12:35:21.888Z,14.10
2019-01-17T12:37:50.392Z,14.20
2019-01-17T12:40:18.742Z,14.40
2019-01-17T12:42:47.278Z,14.30
2019-01-17T12:45:15.777Z,14.40
2019-01-17T12:47:44.150Z,14.40
2019-01-17T12:50:17.216Z,14.30
2019-01-17T12:52:45.682Z,14.40
2019-01-17T12:55:14.032Z,14.50
2019-01-17T12:57:42.538Z,14.60
2019-01-17T13:00:26.883Z,14.60
2019-01-17T13:02:55.921Z,14.70
2019-01-17T13:05:24.774Z,14.80
2019-01-17T13:07:53.466Z,14.80
2019-01-17T13:10:22.747Z,14.90
2019-01-17T13:12:51.373Z,14.80
2019-01-17T13:15:19.723Z,14.80
2019-01-17T13:17:48.422Z,15.00
2019-01-17T13:20:16.916Z,14.90
2019-01-17T13:22:45.298Z,14.80
2019-01-17T13:25:17.517Z,14.80
2019-01-17T13:27:45.993Z,15.00
2019-01-17T13:30:18.025Z,15.00
2019-01-17T13:32:46.704Z,15.00
2019-01-17T13:35:15.790Z,14.90
2019-01-17T13:37:44.302Z,14.90
2019-01-17T13:40:19.202Z,14.80
2019-01-17T13:42:47.734Z,14.90
2019-01-17T13:45:18.162Z,14.80
2019-01-17T13:47:46.656Z,14.60
2019-01-17T13:50:15.739Z,14.50
2019-01-17T13:52:44.119Z,14.30
2019-01-17T13:55:14.328Z,14.10
2019-01-17T13:57:42.693Z,14.00
2019-01-17T14:00:28.348Z,13.80
2019-01-17T14:02:57.045Z,13.80
2019-01-17T14:05:25.424Z,13.60
2019-01-17T14:07:53.754Z,13.50
2019-01-17T14:10:22.215Z,13.40
2019-01-17T14:12:50.747Z,13.20
2019-01-17T14:15:23.547Z,12.90
2019-01-17T14:17:52.302Z,12.80
2019-01-17T14:20:20.781Z,12.70
2019-01-17T14:22:49.142Z,12.60
2019-01-17T14:25:18.007Z,12.50
2019-01-17T14:27:48.159Z,12.30
2019-01-17T14:30:20.860Z,12.30
2019-01-17T14:32:49.410Z,12.20
2019-01-17T14:35:18.087Z,12.20
2019-01-17T14:37:48.228Z,12.10
2019-01-17T14:40:16.589Z,12.10
2019-01-17T14:42:44.988Z,12.10
2019-01-17T14:45:16.899Z,12.00
2019-01-17T14:47:45.340Z,12.00
2019-01-17T14:50:18.873Z,11.90
2019-01-17T14:52:47.453Z,11.80
2019-01-17T14:55:15.906Z,11.70
2019-01-17T14:57:45.966Z,11.70
2019-01-17T15:00:21.604Z,11.60
2019-01-17T15:02:50.064Z,11.40
2019-01-17T15:05:19.042Z,11.40
2019-01-17T15:07:49.190Z,11.30
2019-01-17T15:10:28.334Z,11.20
2019-01-17T15:12:56.801Z,11.20
2019-01-17T15:15:25.290Z,11.10
2019-01-17T15:17:54.049Z,10.90
2019-01-17T15:20:23.430Z,10.80
2019-01-17T15:22:52.760Z,10.60
2019-01-17T15:25:21.773Z,10.70
2019-01-17T15:27:50.132Z,10.60
2019-01-17T15:30:22.856Z,10.50
2019-01-17T15:32:51.829Z,10.40
2019-01-17T15:35:20.184Z,10.30
2019-01-17T15:37:48.634Z,10.20
2019-01-17T15:40:21.334Z,10.10
2019-01-17T15:42:49.862Z,10.00
2019-01-17T15:45:18.633Z,9.90
2019-01-17T15:47:47.111Z,9.80
2019-01-17T15:50:15.853Z,9.60
2019-01-17T15:52:45.258Z,9.50
2019-01-17T15:55:13.980Z,9.50
2019-01-17T15:57:42.591Z,9.40
2019-01-17T16:00:25.997Z,9.40
2019-01-17T16:02:55.981Z,9.40
2019-01-17T16:05:24.353Z,9.40
2019-01-17T16:07:52.857Z,9.40
2019-01-17T16:10:21.259Z,9.50
2019-01-17T16:12:49.761Z,9.40
2019-01-17T16:15:24.056Z,9.30
2019-01-17T16:17:52.669Z,9.30
2019-01-17T16:20:22.252Z,9.20
2019-01-17T16:22:51.566Z,9.20
2019-01-17T16:25:20.030Z,9.30
2019-01-17T16:27:52.974Z,9.10
2019-01-17T16:30:31.731Z,9.10
2019-01-17T16:33:02.296Z,9.10
2019-01-17T16:35:30.825Z,9.10
2019-01-17T16:37:59.308Z,9.10
2019-01-17T16:40:27.673Z,9.10
2019-01-17T16:42:56.231Z,9.10
2019-01-17T16:45:24.749Z,9.00
2019-01-17T16:47:53.270Z,8.90
2019-01-17T16:50:24.258Z,8.90
2019-01-17T16:52:52.801Z,8.80
2019-01-17T16:55:21.262Z,8.80
2019-01-17T16:57:49.894Z,8.70
2019-01-17T17:00:45.274Z,8.80
2019-01-17T17:03:14.034Z,8.80
2019-01-17T17:05:44.293Z,8.80
2019-01-17T17:08:13.077Z,8.90
2019-01-17T17:10:43.805Z,8.80
2019-01-17T17:13:12.280Z,8.80
2019-01-17T17:15:40.759Z,8.80
2019-01-17T17:18:09.373Z,8.90
2019-01-17T17:20:37.992Z,8.90
2019-01-17T17:23:06.576Z,8.90
2019-01-17T17:25:35.161Z,8.80
2019-01-17T17:28:04.999Z,8.80
2019-01-17T17:30:33.512Z,8.80
2019-01-17T17:33:02.150Z,8.60
2019-01-17T17:35:30.634Z,8.60
2019-01-17T17:37:59.459Z,8.50
2019-01-17T17:40:29.589Z,8.40
2019-01-17T17:42:59.209Z,8.40
2019-01-17T17:45:28.892Z,8.40
2019-01-17T17:48:00.018Z,8.40
2019-01-17T17:50:29.550Z,8.40
2019-01-17T17:52:58.463Z,8.40
2019-01-17T17:55:27.355Z,8.30
2019-01-17T17:58:01.986Z,8.30
2019-01-17T18:00:50.771Z,8.30
2019-01-17T18:03:19.401Z,8.20
2019-01-17T18:05:48.194Z,8.20
2019-01-17T18:08:18.747Z,8.10
2019-01-17T18:10:47.257Z,8.20
2019-01-17T18:13:16.815Z,8.10
2019-01-17T18:15:46.994Z,8.10
2019-01-17T18:18:15.363Z,8.10
2019-01-17T18:20:43.956Z,8.10
2019-01-17T18:23:12.842Z,8.10
2019-01-17T18:25:41.877Z,8.10
2019-01-17T18:28:10.566Z,8.00
2019-01-17T18:30:40.262Z,8.00
2019-01-17T18:33:09.161Z,8.00
2019-01-17T18:35:37.831Z,7.90
2019-01-17T18:38:06.363Z,8.00
2019-01-17T18:40:34.993Z,8.00
2019-01-17T18:43:10.656Z,8.00
2019-01-17T18:45:41.038Z,8.10
2019-01-17T18:48:09.527Z,8.00
2019-01-17T18:50:38.343Z,8.10
2019-01-17T18:53:13.512Z,8.10
2019-01-17T18:55:45.263Z,8.10
2019-01-17T18:58:15.678Z,8.00
2019-01-17T19:00:46.782Z,8.00
2019-01-17T19:03:20.304Z,8.00
2019-01-17T19:05:49.012Z,8.00
2019-01-17T19:08:17.801Z,8.00
2019-01-17T19:10:46.596Z,7.90
2019-01-17T19:13:17.849Z,7.80
2019-01-17T19:15:49.446Z,7.80
2019-01-17T19:18:18.125Z,7.80
2019-01-17T19:20:47.055Z,7.80
2019-01-17T19:23:15.860Z,7.70
2019-01-17T19:25:53.888Z,7.80
2019-01-17T19:28:24.641Z,7.70
2019-01-17T19:30:53.795Z,7.70
2019-01-17T19:33:22.459Z,7.70
2019-01-17T19:35:51.317Z,7.80
2019-01-17T19:38:20.024Z,7.90
2019-01-17T19:40:48.808Z,7.90
2019-01-17T19:43:17.440Z,7.80
2019-01-17T19:45:49.369Z,7.90
2019-01-17T19:48:18.042Z,7.80
2019-01-17T19:50:46.858Z,7.80
2019-01-17T19:53:18.762Z,7.80
2019-01-17T19:55:47.424Z,7.70
2019-01-17T19:58:16.288Z,7.70
2019-01-17T20:00:46.565Z,7.60
2019-01-17T20:03:15.699Z,7.50
2019-01-17T20:05:44.461Z,7.50
2019-01-17T20:08:18.715Z,7.60
2019-01-17T20:10:47.340Z,7.50
2019-01-17T20:13:15.996Z,7.50
2019-01-17T20:15:45.144Z,7.50
2019-01-17T20:18:13.599Z,7.40
2019-01-17T20:20:42.829Z,7.40
2019-01-17T20:23:11.695Z,7.40
2019-01-17T20:25:40.259Z,7.40
2019-01-17T20:28:16.191Z,7.40
2019-01-17T20:30:46.128Z,7.30
2019-01-17T20:33:16.017Z,7.30
2019-01-17T20:35:45.062Z,7.30
2019-01-17T20:38:13.627Z,7.50
2019-01-17T20:40:42.508Z,7.50
2019-01-17T20:43:11.230Z,7.40
2019-01-17T20:45:39.865Z,7.50
2019-01-17T20:48:12.272Z,7.50
2019-01-17T20:50:42.232Z,7.50
2019-01-17T20:53:10.744Z,7.50
2019-01-17T20:55:39.596Z,7.40
2019-01-17T20:58:09.919Z,7.40
2019-01-17T21:01:07.652Z,7.50
2019-01-17T21:03:38.332Z,7.50
2019-01-17T21:06:07.379Z,7.40
2019-01-17T21:08:37.100Z,7.40
2019-01-17T21:11:05.804Z,7.40
2019-01-17T21:13:34.616Z,7.50
2019-01-17T21:16:03.146Z,7.40
2019-01-17T21:18:31.550Z,7.40
2019-01-17T21:20:59.923Z,7.30
2019-01-17T21:23:28.710Z,7.20
2019-01-17T21:25:57.252Z,7.20
2019-01-17T21:28:25.760Z,7.20
2019-01-17T21:30:54.145Z,7.20
2019-01-17T21:33:22.658Z,7.30
2019-01-17T21:35:51.078Z,7.30
2019-01-17T21:38:19.467Z,7.30
2019-01-17T21:40:47.935Z,7.20
2019-01-17T21:43:16.485Z,7.20
2019-01-17T21:45:44.845Z,7.10
2019-01-17T21:48:13.203Z,7.10
2019-01-17T21:50:41.587Z,7.20
2019-01-17T21:53:10.088Z,7.20
2019-01-17T21:55:38.625Z,7.20
2019-01-17T21:58:08.017Z,7.20
2019-01-17T22:00:36.652Z,7.20
2019-01-17T22:03:08.897Z,7.20
2019-01-17T22:05:37.282Z,7.20
2019-01-17T22:08:05.878Z,7.10
2019-01-17T22:10:34.371Z,7.10
2019-01-17T22:13:02.825Z,7.10
2019-01-17T22:15:31.209Z,7.10
2019-01-17T22:17:59.683Z,7.10
2019-01-17T22:20:28.160Z,7.10
2019-01-17T22:22:56.745Z,7.10
2019-01-17T22:25:25.220Z,7.10
2019-01-17T22:27:53.591Z,7.00
2019-01-17T22:30:24.662Z,7.00
2019-01-17T22:32:53.126Z,7.00
2019-01-17T22:35:21.538Z,6.90
2019-01-17T22:37:50.306Z,6.90
2019-01-17T22:40:18.885Z,6.90
2019-01-17T22:42:47.258Z,6.90
2019-01-17T22:45:19.580Z,6.90
2019-01-17T22:47:48.039Z,7.00
2019-01-17T22:50:17.246Z,7.00
2019-01-17T22:52:47.570Z,6.90
2019-01-17T22:55:15.945Z,6.90
2019-01-17T22:57:45.704Z,6.90
2019-01-17T23:01:02.073Z,6.80
2019-01-17T23:03:37.904Z,6.80
2019-01-17T23:06:08.098Z,6.80
2019-01-17T23:08:36.469Z,6.80
2019-01-17T23:11:04.849Z,6.80
2019-01-17T23:13:33.462Z,6.70
2019-01-17T23:16:01.833Z,6.70
2019-01-17T23:18:30.291Z,6.80
2019-01-17T23:20:58.860Z,6.90
2019-01-17T23:23:27.321Z,7.00
2019-01-17T23:25:55.693Z,7.00
2019-01-17T23:28:24.168Z,7.00
2019-01-17T23:30:52.638Z,6.90
2019-01-17T23:33:21.086Z,6.90
2019-01-17T23:35:49.640Z,6.90
2019-01-17T23:38:18.147Z,6.80
2019-01-17T23:40:46.628Z,6.80
2019-01-17T23:43:15.106Z,6.80
2019-01-17T23:45:43.601Z,6.80
2019-01-17T23:48:12.070Z,6.80
2019-01-17T23:50:40.557Z,6.70
2019-01-17T23:53:08.964Z,6.80
2019-01-17T23:55:37.440Z,6.70
2019-01-17T23:58:05.944Z,6.70
